• Join FlightAware (Why Join?)
  • Login
  • US Flag 
02:31PM EDT


 

Airport Tracker/Info


-or-


 

Live Flight TrackerFlight Track Log ✈ EJA831 ✈ 25-Jul-2013 ✈ KEYE - KIAD

Flight Track Log - Related Links

Times and Time Zones

All times are in EDT time to prevent confusion due to time zone crossing. See the EJA831 flight status page for this flight to view local times or setup timezone preferences in your user account.

Time Position Orientation Groundspeed Altitude Reporting Facility
EDT Latitude Longitude Course Direction KTS MPH feet Rate Location/Type
04:35PM 39.8833 -86.2833 360° North 205 236 2,900  Level Indianapolis TRACON
04:36PM 39.9167 -86.2167 57° Northeast 234 269 3,900 360 Climbing Indianapolis TRACON
04:37PM 39.9147 -86.0931 91° East 241 277 3,900 600 Level Indianapolis Center
04:38PM 39.9172 -85.9961 88° East 255 293 5,400 1,440 Climbing Indianapolis Center
04:39PM 39.9217 -85.8969 87° East 265 305 6,900 2,040 Climbing Indianapolis Center
04:40PM 39.8667 -85.5140 90° East  Level FlightAware Approximate
04:40PM 39.9261 -85.7753 87° East 277 319 9,700  Level Indianapolis Center
04:41PM 39.9289 -85.6611 88° East 311 358 12,100 2,340 Climbing Indianapolis Center
04:43PM 39.9297 -85.5386 89° East 338 389 14,600 2,400 Climbing Indianapolis Center
04:44PM 39.9303 -85.4128 90° East 346 398 17,200 2,460 Climbing Indianapolis Center
04:45PM 39.9322 -85.2872 89° East 348 400 19,700 2,400 Climbing Indianapolis Center
04:46PM 39.9311 -85.1589 91° East 354 407 22,200 2,340 Climbing Indianapolis Center
04:47PM 39.9308 -85.0003 90° East 365 420 24,600 1,620 Climbing Indianapolis Center
04:48PM 39.9300 -84.8725 90° East 387 445 25,600 660 Climbing Indianapolis Center
04:49PM 39.9292 -84.7183 90° East 415 478 26,000 720 Climbing Indianapolis Center
04:50PM 39.9272 -84.5317 91° East 435 501 27,200 1,020 Climbing Indianapolis Center
04:51PM 39.9256 -84.3725 91° East 437 503 28,200 960 Climbing Indianapolis Center
04:52PM 39.9242 -84.2125 91° East 437 503 29,300 960 Climbing Indianapolis Center
04:53PM 39.9222 -84.0525 91° East 437 503 30,300 780 Climbing Indianapolis Center
04:54PM 39.9197 -83.8936 91° East 436 502 31,000 300 Climbing Indianapolis Center
04:55PM 39.9175 -83.7300 91° East 445 512 31,000  Level Indianapolis Center
04:56PM 39.9158 -83.5653 91° East 446 513 31,000  Level Indianapolis Center
04:57PM 39.9117 -83.3844 92° East 448 516 31,000  Level Indianapolis Center
04:58PM 39.9089 -83.2267 91° East 453 521 31,000  Level Indianapolis Center
04:59PM 39.9058 -83.0622 91° East 451 519 31,000  Level Indianapolis Center
05:00PM 39.9011 -82.8686 92° East 454 522 31,000  Level Indianapolis Center
05:01PM 39.8969 -82.7025 92° East 455 524 31,000  Level Indianapolis Center
05:02PM 39.8936 -82.5358 91° East 457 526 31,000  Level Indianapolis Center
05:03PM 39.8881 -82.3694 92° East 457 526 31,000  Level Indianapolis Center
05:04PM 39.8839 -82.2044 92° East 454 522 31,000  Level Indianapolis Center
05:05PM 39.8786 -82.0397 92° East 452 520 31,000  Level Indianapolis Center
05:06PM 39.8733 -81.8744 92° East 453 521 31,000  Level Indianapolis Center
05:07PM 39.8681 -81.6847 92° East 448 516 31,000  Level Indianapolis Center
05:08PM 39.8483 -81.5225 99° East 451 519 31,000  Level Indianapolis Center
05:09PM 39.8153 -81.3594 105° East 446 513 31,000  Level Indianapolis Center
05:10PM 39.7783 -81.2031 107° East 450 518 31,000  Level Indianapolis Center
05:11PM 39.7417 -81.0469 107° East 450 518 31,000  Level Indianapolis Center
05:13PM 39.7036 -80.8917 108° East 449 517 31,000  Level Indianapolis Center
05:14PM 39.6664 -80.7361 107° East 450 518 31,000  Level Indianapolis Center
05:15PM 39.6289 -80.5803 107° East 450 518 31,000  Level Indianapolis Center
05:16PM 39.5897 -80.4267 108° East 449 517 31,000  Level Indianapolis Center
05:17PM 39.5578 -80.2806 106° East 456 525 31,000  Level Washington Center
05:18PM 39.5200 -80.1275 108° East 449 517 31,000 -720 Level Washington Center
05:19PM 39.4797 -79.9744 109° East 449 517 29,600 -1,500 Descending Washington Center
05:20PM 39.4497 -79.8247 105° East 444 511 28,100 -1,560 Descending Washington Center
05:21PM 39.4172 -79.6750 106° East 439 505 26,600 -1,500 Descending Washington Center
05:22PM 39.3889 -79.5283 104° East 434 499 25,100 -840 Descending Washington Center
05:23PM 39.3581 -79.3817 105° East 424 488 25,000 -60 Descending Washington Center
05:24PM 39.3214 -79.2217 106° East 424 488 25,000 -900 Level Washington Center
05:25PM 39.2903 -79.0806 106° East 424 488 23,200 -2,040 Descending Washington Center
05:26PM 39.2608 -78.9397 105° East 418 481 21,000 -2,220 Descending Washington Center
05:27PM 39.2311 -78.8044 106° East 408 470 18,900 -1,980 Descending Washington Center
05:28PM 39.2053 -78.6800 105° East 383 441 17,100 -1,920 Descending Washington Center
05:29PM 39.1772 -78.5531 106° East 371 427 15,100 -1,980 Descending Washington Center
05:30PM 39.1489 -78.4286 106° East 366 421 13,200 -1,860 Descending Washington Center
05:31PM 39.1244 -78.3153 106° East 352 405 11,400 -1,680 Descending Washington Center
05:32PM 39.0697 -78.2464 136° Southeast 286 329 10,000 -1,560 Descending Washington Center
05:33PM 38.9933 -78.2117 161° South 276 318 8,400 -1,620 Descending Washington Center
05:34PM 38.9189 -78.1797 162° South 276 318 6,800 -1,620 Descending Washington Center
05:35PM 38.8492 -78.1292 151° Southeast 281 323 5,200 -960 Descending Washington Center
05:36PM 38.7814 -78.0789 150° Southeast 281 323 5,000 -120 Descending Washington Center
05:37PM 38.7369 -78.0083 129° Southeast 281 323 5,000  Level Washington Center
05:38PM 38.6950 -77.9217 122° Southeast 286 329 5,000  Level Washington Center
05:39PM 38.6822 -77.8256 100° East 272 313 5,000  Level Washington Center
05:41PM 38.6667 -77.5833 95° East 285 328 5,000  Level Potomac TRACON
05:42PM 38.6667 -77.4833 90° East 282 325 5,000 -300 Level Potomac TRACON
05:43PM 38.7333 -77.4333 30° Northeast 266 306 4,400 -900 Descending Potomac TRACON
05:44PM 38.8000 -77.4333 360° North 242 278 3,200 -1,380 Descending Potomac TRACON
05:45PM 38.8500 -77.4333 360° North 220 253 1,700 -1,200 Descending Potomac TRACON
05:46PM 38.9000 -77.4333 360° North 141 162 800 -900 Descending Potomac TRACON
05:48PM 38.9333 -77.4500 90° East  Level FlightAware Approximate
05:55PM 38.9474 -77.4599 90° East  Level Estimated